DENSR / D-ENSR 7700 Squawk Report (16th of November, 2018)

Time Lat Lon Altitude Heading Speed Vertical Rate
2018-11-16 15:28:26 GMT 51.601200 6.819611 500 283 94 -384
2018-11-16 15:28:22 GMT 51.600780 6.822433 900 283 94 -384
2018-11-16 15:28:05 GMT 51.593613 6.829910 900 263 114 -256
2018-11-16 15:27:55 GMT 51.591888 6.836472 1,000 257 128 -64
2018-11-16 15:27:48 GMT 51.592682 6.842422 1,000 259 145 256
2018-11-16 15:27:36 GMT 51.595100 6.851578 1,100 259 145 256
2018-11-16 15:27:24 GMT 51.597012 6.862564 1,100 259 145 256
2018-11-16 15:27:16 GMT 51.598080 6.870728 1,200 259 145 256
2018-11-16 15:27:01 GMT 51.598686 6.886826 1,200 254 143 64
2018-11-16 15:26:51 GMT 51.598919 6.898193 1,100 246 149 -128
2018-11-16 15:26:33 GMT 51.604088 6.917191 1,075 246 149 -128
2018-11-16 15:26:23 GMT 51.606415 6.926880 1,100 248 157 -512
2018-11-16 15:26:12 GMT 51.610603 6.936569 1,100 248 157 -512
2018-11-16 15:25:46 GMT 51.618889 6.965866 1,325 248 157 -512
2018-11-16 15:25:38 GMT 51.621681 6.976089 1,300 249 155 -320
2018-11-16 15:25:30 GMT 51.624012 6.982498 1,475 251 154 -192
2018-11-16 15:25:20 GMT 51.626198 6.992493 1,500 251 152 -256
2018-11-16 15:25:07 GMT 51.629597 7.006912 1,500 251 154 -256
2018-11-16 15:24:53 GMT 51.632622 7.022324 1,625 251 154 -256
2018-11-16 15:24:41 GMT 51.634903 7.033997 1,600 246 152 -384
2018-11-16 15:24:36 GMT 51.636208 7.040710 1,700 246 152 -384
2018-11-16 15:24:27 GMT 51.638302 7.050934 1,800 246 152 -384
2018-11-16 15:24:14 GMT 51.641281 7.066574 1,700 246 152 -384
2018-11-16 15:24:07 GMT 51.643517 7.074738 1,700 245 153 -256
2018-11-16 15:23:54 GMT 51.646496 7.086868 1,900 244 143 -384
2018-11-16 15:23:36 GMT 51.652596 7.105103 1,900 244 143 -384
2018-11-16 15:23:29 GMT 51.656784 7.119293 1,900 244 143 -384
2018-11-16 15:23:22 GMT 51.656784 7.119293 2,000 244 143 -384
2018-11-16 15:23:06 GMT 51.662884 7.143478 2,000 252 169 -704
2018-11-16 15:22:59 GMT 51.678898 7.201996 2,000 252 169 -704
2018-11-16 15:22:03 GMT 51.678898 7.201996 2,400 254 176 -768
2018-11-16 15:21:54 GMT 51.681595 7.213287 2,700 254 176 -768
2018-11-16 15:21:48 GMT 51.682995 7.219086 2,700 254 176 -768
2018-11-16 15:21:34 GMT 51.686577 7.235031 2,800 254 176 -768
2018-11-16 15:21:23 GMT 51.689278 7.249527 3,000 255 179 -896
2018-11-16 15:21:12 GMT 51.691605 7.262878 3,100 255 183 -896
2018-11-16 15:21:06 GMT 51.693001 7.270432 3,300 255 188 -960
2018-11-16 15:20:56 GMT 51.695423 7.283630 3,400 255 188 -960
2018-11-16 15:20:42 GMT 51.701103 7.319336 3,600 253 196 -1024
2018-11-16 15:20:30 GMT 51.701103 7.319336 3,700 253 196 -1024
2018-11-16 15:20:22 GMT 51.702915 7.328873 3,900 253 196 -1024
2018-11-16 15:20:13 GMT 51.705292 7.341537 4,100
We lost coverage of the aircraft here for a total of 8 minutes
2018-11-16 15:12:00 GMT 51.824169 7.958700 6,300 257 173
2018-11-16 15:12:00 GMT 51.824169 7.958700 6,600 257 173
2018-11-16 15:11:57 GMT 51.824570 7.961070 6,600 257 173
2018-11-16 15:11:46 GMT 51.826630 7.974420 6,600 257 173
2018-11-16 15:11:36 GMT 51.828522 7.988050 6,901 257 173
2018-11-16 15:11:24 GMT 51.831848 8.006600 6,500 258 170
2018-11-16 15:11:14 GMT 51.833271 8.014120 6,400 258 170
2018-11-16 15:11:04 GMT 51.836552 8.027350 6,400 258 170
2018-11-16 15:10:53 GMT 51.839451 8.041770 6,500 258 170
2018-11-16 15:10:41 GMT 51.841431 8.053850 6,500 258 170
2018-11-16 15:10:32 GMT 51.842819 8.066450 6,878 258 172
2018-11-16 15:10:22 GMT 51.844398 8.077770 6,400 253 170
2018-11-16 15:10:11 GMT 51.846748 8.091320 6,885 253 170
2018-11-16 15:09:59 GMT 51.849800 8.105800 6,500 248 171
2018-11-16 15:09:46 GMT 51.856171 8.120270 6,400 248 171
2018-11-16 15:09:38 GMT 51.859581 8.128680 6,500 248 171
2018-11-16 15:09:27 GMT 51.863602 8.139470 6,500 248 171
2018-11-16 15:09:16 GMT 51.867802 8.151420 6,500 248 171
2018-11-16 15:09:07 GMT 51.870899 8.161620 6,500 248 171
2018-11-16 15:08:58 GMT 51.874020 8.173200 6,852 248 171
2018-11-16 15:08:44 GMT 51.877998 8.188700 6,400 247 173
2018-11-16 15:08:36 GMT 51.880669 8.198070 6,878 244 171
2018-11-16 15:08:24 GMT 51.884529 8.212150 6,793 246 175
2018-11-16 15:08:13 GMT 51.888168 8.225270 6,839 245 174
2018-11-16 15:08:04 GMT 51.891300 8.235630 6,400 245 171
2018-11-16 15:07:52 GMT 51.894878 8.249720 6,500 249 169
2018-11-16 15:07:43 GMT 51.897449 8.261820 6,500 252 175
2018-11-16 15:07:32 GMT 51.899948 8.274220 6,400 252 173
2018-11-16 15:07:22 GMT 51.902222 8.286780 6,822 256 178
2018-11-16 15:07:12 GMT 51.904400 8.301050 6,858 257 176
2018-11-16 15:06:58 GMT 51.906078 8.318920 6,500 268 173
2018-11-16 15:06:47 GMT 51.906200 8.333130 6,500 269 173
2018-11-16 15:06:40 GMT 51.906132 8.340900 6,921 269 173
2018-11-16 15:06:28 GMT 51.906380 8.357680 6,500 267 173
2018-11-16 15:06:17 GMT 51.906872 8.370700 6,819 268 177
2018-11-16 15:06:04 GMT 51.907181 8.389370 6,400 262 174
2018-11-16 15:05:56 GMT 51.907848 8.398420 6,400 262 174
2018-11-16 15:05:45 GMT 51.908951 8.412900 6,500 254 181
2018-11-16 15:05:35 GMT 51.910770 8.426230 6,770 254 181
2018-11-16 15:05:26 GMT 51.913731 8.443030 6,819 255 181
2018-11-16 15:05:08 GMT 51.917198 8.462330 6,400 252 174
2018-11-16 15:05:03 GMT 51.918171 8.467350 6,901 252 174
2018-11-16 15:04:53 GMT 51.920979 8.480970 6,500 254 177
2018-11-16 15:04:41 GMT 51.924568 8.493780 6,500 254 177
2018-11-16 15:04:31 GMT 51.930119 8.523730 6,500 254 177
2018-11-16 15:04:18 GMT 51.930119 8.523730 6,500 254 177
2018-11-16 15:04:09 GMT 51.932251 8.534980 6,500 254 177
2018-11-16 15:04:00 GMT 51.934181 8.545000 6,500 254 177
2018-11-16 15:03:49 GMT 51.936771 8.558950 6,500 254 177
2018-11-16 15:03:39 GMT 51.939121 8.571680 6,901 254 177
2018-11-16 15:03:24 GMT 51.942619 8.590600 6,500 254 171
2018-11-16 15:03:18 GMT 51.944149 8.598050 6,500 254 171
2018-11-16 15:03:06 GMT 51.947151 8.613450 6,500 254 171
2018-11-16 15:02:50 GMT 51.951130 8.634420 6,500 254 171
2018-11-16 15:02:41 GMT 51.953468 8.646200 6,500 254 171
2018-11-16 15:02:35 GMT 51.955318 8.653780 6,500 254 171
2018-11-16 15:02:20 GMT 51.958920 8.673200 6,600 254 171
2018-11-16 15:02:14 GMT 51.960369 8.682470 6,600 254 171
2018-11-16 15:02:01 GMT 51.962719 8.698300 6,600 254 171
2018-11-16 15:01:53 GMT 51.964149 8.708820 6,600 254 171
2018-11-16 15:01:42 GMT 51.966331 8.724330 6,600 254 171
2018-11-16 15:01:30 GMT 51.968418 8.738050 6,700 254 171
2018-11-16 15:01:21 GMT 51.970421 8.750230 7,068 254 171
2018-11-16 15:01:07 GMT 51.973221 8.766550 6,600 251 178
2018-11-16 15:00:59 GMT 51.975300 8.778000 6,600 251 178
2018-11-16 15:00:49 GMT 51.977798 8.790720 6,921 251 178
2018-11-16 15:00:37 GMT 51.980530 8.804620 6,500 257 179
2018-11-16 15:00:26 GMT 51.982880 8.818630 6,600 257 179
2018-11-16 15:00:16 GMT 51.984879 8.831580 6,921 257 179
2018-11-16 15:00:04 GMT 51.987270 8.848670 6,931 256 180
2018-11-16 14:59:56 GMT 51.988750 8.857680 6,980 254 177
2018-11-16 14:59:39 GMT 51.993252 8.880080 6,600 242 165
2018-11-16 14:59:29 GMT 51.996632 8.891530 6,600 242 165
2018-11-16 14:59:24 GMT 51.998070 8.895920 6,700 242 165
2018-11-16 14:59:14 GMT 52.002178 8.908020 6,700 244 173
2018-11-16 14:59:03 GMT 52.005829 8.919650 7,049 244 176
2018-11-16 14:58:49 GMT 52.010521 8.935980 6,600 247 171
2018-11-16 14:58:39 GMT 52.014332 8.951100 6,600 254 170
2018-11-16 14:58:30 GMT 52.015720 8.958300 6,600 254 170
2018-11-16 14:58:17 GMT 52.018970 8.975550 6,500 252 173
2018-11-16 14:57:55 GMT 52.026932 9.013350 6,500 252 173
2018-11-16 14:57:45 GMT 52.026932 9.013350 7,000 252 173
2018-11-16 14:57:28 GMT 52.031502 9.035380 6,967 256 173
2018-11-16 14:57:18 GMT 52.033230 9.048130 6,931 257 175
2018-11-16 14:57:05 GMT 52.035580 9.063720 6,780 255 185
2018-11-16 14:56:45 GMT 52.040218 9.089820 6,400 259 177
2018-11-16 14:56:35 GMT 52.042782 9.103650 6,500 259 177
2018-11-16 14:56:25 GMT 52.046730 9.125520 6,400 259 177
2018-11-16 14:56:17 GMT 52.046730 9.125520 6,400 259 177
2018-11-16 14:56:07 GMT 52.048950 9.138430 6,400 259 177
2018-11-16 14:54:50 GMT 52.067871 9.240380 6,500 259 177
2018-11-16 14:54:42 GMT 52.070278 9.252230 6,500 259 177
2018-11-16 14:54:29 GMT 52.073181 9.267970 6,500 259 177
2018-11-16 14:54:21 GMT 52.074772 9.278220 6,700 259 177
2018-11-16 14:54:13 GMT 52.076530 9.289750 6,700 259 177
2018-11-16 14:54:03 GMT 52.077980 9.301530 7,167 259 177
2018-11-16 14:53:25 GMT 52.083370 9.351550 6,600 248 154
2018-11-16 14:53:15 GMT 52.085232 9.364870 6,600 248 154
2018-11-16 14:53:05 GMT 52.088131 9.385030 6,600 248 154
2018-11-16 14:52:36 GMT 52.098652 9.432880 6,700 248 154
2018-11-16 14:52:24 GMT 52.098652 9.432880 6,700 248 154
2018-11-16 14:52:16 GMT 52.100971 9.441820 6,700 248 154
2018-11-16 14:52:03 GMT 52.106369 9.472080 6,700 248 154
2018-11-16 14:51:55 GMT 52.106369 9.472080 6,700 248 154
2018-11-16 14:51:45 GMT 52.107971 9.483970 6,800 248 154
2018-11-16 14:51:29 GMT 52.110600 9.503250 6,900 248 154
2018-11-16 14:51:21 GMT 52.111801 9.513150 7,000 248 154
2018-11-16 14:51:10 GMT 52.113701 9.527700 7,000 248 154
2018-11-16 14:51:00 GMT 52.116531 9.549930 7,000 248 154
2018-11-16 14:50:51 GMT 52.116531 9.549930 7,000 248 154
2018-11-16 14:50:39 GMT 52.118931 9.563070 6,800 248 154
2018-11-16 14:50:24 GMT 52.122719 9.583320 6,700 248 154
2018-11-16 14:50:18 GMT 52.124168 9.590230 6,700 248 154
2018-11-16 14:50:08 GMT 52.126049 9.599050 7,321 248 154
2018-11-16 14:49:56 GMT 52.129501 9.611750 7,203 245 155
2018-11-16 14:49:47 GMT 52.132568 9.622320 7,022 241 154
2018-11-16 14:49:36 GMT 52.136581 9.633100 7,003 236 151
2018-11-16 14:49:25 GMT 52.140228 9.642300 7,196 237 141
2018-11-16 14:49:13 GMT 52.144299 9.653120 6,600 240 128
2018-11-16 14:49:02 GMT 52.150200 9.663680 6,500 240 128
2018-11-16 14:48:53 GMT 52.152729 9.669100 7,065 240 128
2018-11-16 14:48:39 GMT 52.156879 9.681670 6,400 245 120
2018-11-16 14:48:31 GMT 52.158798 9.688220 6,750 245 120
2018-11-16 14:48:21 GMT 52.160721 9.694850 6,639 246 124
2018-11-16 14:48:10 GMT 52.163151 9.705320 6,540 249 124
2018-11-16 14:47:58 GMT 52.165401 9.715100 6,000 230 118
We lost coverage of the aircraft here for a total of 30 minutes
2018-11-16 14:18:24 GMT 52.178520 9.949450 289 0 0
2018-11-16 14:18:04 GMT 52.178520 9.949430 289 0 0
2018-11-16 14:17:44 GMT 52.178520 9.949500 285 0 1
2018-11-16 14:17:39 GMT 52.178478 9.949580 285 332 4
2018-11-16 14:17:31 GMT 52.178322 9.949520 285 62 4
2018-11-16 14:17:20 GMT 52.178329 9.949050 285 108 5
2018-11-16 14:17:01 GMT 52.179020 9.948250 285 168 13
2018-11-16 14:16:51 GMT 52.179569 9.948020 282 163 11
2018-11-16 14:16:45 GMT 52.179878 9.947870 285 157 10
2018-11-16 14:16:38 GMT 52.180080 9.947570 285 85 10
2018-11-16 14:16:28 GMT 52.179771 9.945550 282 76 38
2018-11-16 14:16:12 GMT 52.178822 9.940000 285 74 57
2018-11-16 14:16:02 GMT 52.178120 9.935750 308 74 70
2018-11-16 14:15:53 GMT 52.177269 9.930880 420 77 76
2018-11-16 14:15:44 GMT 52.176430 9.925180 597 81 78
2018-11-16 14:15:32 GMT 52.176102 9.918520 738 95 80
2018-11-16 14:15:18 GMT 52.177078 9.908930 400 106 79
2018-11-16 14:15:09 GMT 52.178051 9.905100 948 120 78
2018-11-16 14:14:57 GMT 52.180382 9.899080 954 125 77
2018-11-16 14:14:47 GMT 52.182629 9.894400 918 129 79
2018-11-16 14:14:35 GMT 52.185349 9.888700 500 154 77
2018-11-16 14:14:24 GMT 52.188251 9.884350 500 154 77
2018-11-16 14:14:15 GMT 52.191120 9.881900 889 154 77
2018-11-16 14:14:05 GMT 52.194401 9.879420 866 159 77
2018-11-16 14:13:52 GMT 52.199478 9.876720 400 193 92
2018-11-16 14:13:42 GMT 52.203178 9.875500 400 193 92
2018-11-16 14:13:34 GMT 52.207020 9.875730 915 193 92
2018-11-16 14:13:22 GMT 52.210972 9.879800 991 234 97
2018-11-16 14:13:13 GMT 52.212681 9.886230 1,030 254 109
2018-11-16 14:13:00 GMT 52.214401 9.896100 800 253 113
2018-11-16 14:12:50 GMT 52.217522 9.912480 800 254 114
2018-11-16 14:12:41 GMT 52.217522 9.912480 1,296 254 114
2018-11-16 14:12:27 GMT 52.219200 9.924220 1,000 257 117
2018-11-16 14:12:17 GMT 52.219898 9.932780 1,000 257 117
2018-11-16 14:12:07 GMT 52.220798 9.941400 1,100 257 117
2018-11-16 14:11:58 GMT 52.221680 9.949320 1,502 257 117
2018-11-16 14:11:46 GMT 52.224480 9.962920 1,597 256 123
2018-11-16 14:11:34 GMT 52.225170 9.970330 1,300 283 135
2018-11-16 14:11:22 GMT 52.223969 9.982200 1,300 283 135
2018-11-16 14:11:13 GMT 52.222530 9.991220 1,200 283 135
2018-11-16 14:11:02 GMT 52.220779 10.003280 1,617 283 135
2018-11-16 14:10:51 GMT 52.218521 10.015850 1,200 287 157
2018-11-16 14:10:41 GMT 52.217220 10.022680 1,200 287 157
2018-11-16 14:10:31 GMT 52.215271 10.032630 1,100 287 157
2018-11-16 14:10:18 GMT 52.212582 10.045330 1,100 287 157
2018-11-16 14:09:58 GMT 52.207420 10.069830 1,200 287 157
2018-11-16 14:09:47 GMT 52.206478 10.074730 1,100 287 157
2018-11-16 14:09:35 GMT 52.203972 10.088230 1,100 287 157
2018-11-16 14:09:28 GMT 52.202518 10.096000 1,342 287 157
2018-11-16 14:09:14 GMT 52.199120 10.112570 900 294 179
2018-11-16 14:09:05 GMT 52.197231 10.122230 1,000 294 179
2018-11-16 14:08:56 GMT 52.193748 10.139430 1,100 294 179
2018-11-16 14:08:45 GMT 52.192249 10.146900 1,300 294 179
2018-11-16 14:08:25 GMT 52.184479 10.179400 2,001 294 179
2018-11-16 14:08:13 GMT 52.182430 10.186770 1,700 292 174
2018-11-16 14:08:02 GMT 52.177479 10.204880 1,900 292 174
2018-11-16 14:07:51 GMT 52.175121 10.214580 2,100 285 186
2018-11-16 14:07:41 GMT 52.171429 10.229250 2,200 285 186
2018-11-16 14:07:27 GMT 52.168098 10.243030 2,300 285 186
2018-11-16 14:07:15 GMT 52.164169 10.259800 2,400 285 186
2018-11-16 14:07:09 GMT 52.159870 10.284030 2,500 284 184
2018-11-16 14:06:56 GMT 52.159870 10.284030 2,600 284 184
2018-11-16 14:06:47 GMT 52.157879 10.296100 2,700 284 184
2018-11-16 14:06:37 GMT 52.155079 10.313530 3,234 284 184
2018-11-16 14:06:23 GMT 52.152882 10.328280 2,900 283 186
2018-11-16 14:06:13 GMT 52.150631 10.343120 3,100 283 186
2018-11-16 14:06:04 GMT 52.149021 10.353900 3,529 283 186
2018-11-16 14:05:54 GMT 52.145882 10.375370 3,690 282 182
2018-11-16 14:05:40 GMT 52.144199 10.387500 3,400 273 182
2018-11-16 14:05:32 GMT 52.142879 10.396930 3,400 273 182
2018-11-16 14:05:19 GMT 52.140430 10.414480 3,600 273 182
2018-11-16 14:05:11 GMT 52.139179 10.425520 3,700 273 182
2018-11-16 14:05:01 GMT 52.137981 10.442070 4,166 273 182
2018-11-16 14:04:45 GMT 52.137669 10.461070 3,900 277 176
2018-11-16 14:04:35 GMT 52.137421 10.474470 4,000 277 176
2018-11-16 14:04:24 GMT 52.137032 10.489180 4,100 277 176
2018-11-16 14:04:18 GMT 52.136799 10.498480 4,100 277 176
2018-11-16 14:04:05 GMT 52.136021 10.514420 4,100 277 176
2018-11-16 14:03:52 GMT 52.134480 10.533830 4,100 277 176
2018-11-16 14:03:43 GMT 52.133499 10.542780 4,100 277 176
2018-11-16 14:03:30 GMT 52.131599 10.559520 4,100 277 176
2018-11-16 14:03:22 GMT 52.129421 10.590830 4,100 277 176
We lost coverage of the aircraft here for a total of 13 minutes
2018-11-16 13:50:50 GMT 52.062000 11.575980 4,100 271 182
2018-11-16 13:50:50 GMT 52.062000 11.575980 4,000 271 182
2018-11-16 13:50:35 GMT 52.061329 11.599020 4,366 271 182
2018-11-16 13:50:22 GMT 52.061119 11.614050 4,000 266 180
2018-11-16 13:50:11 GMT 52.061050 11.627600 4,000 266 180
2018-11-16 13:50:03 GMT 52.061180 11.639730 4,000 266 180
2018-11-16 13:49:50 GMT 52.061649 11.657250 4,000 266 180
2018-11-16 13:49:43 GMT 52.061951 11.665330 4,549 266 180
2018-11-16 13:49:30 GMT 52.062599 11.682750 4,000 269 180
2018-11-16 13:49:22 GMT 52.062778 11.694880 4,556 269 180
2018-11-16 13:49:09 GMT 52.063221 11.711050 4,000 264 180
2018-11-16 13:49:00 GMT 52.063679 11.724600 4,000 264 180
2018-11-16 13:48:45 GMT 52.065300 11.744680 4,000 264 180
2018-11-16 13:48:28 GMT 52.066921 11.767380 4,523 264 180
2018-11-16 13:48:17 GMT 52.067799 11.782250 4,000 265 182
2018-11-16 13:48:05 GMT 52.068501 11.798550 4,000 266 182
2018-11-16 13:47:57 GMT 52.068878 11.808080 4,484 266 182
2018-11-16 13:47:44 GMT 52.069550 11.827500 4,467 267 186
2018-11-16 13:47:35 GMT 52.069771 11.840080 4,487 269 186
2018-11-16 13:47:24 GMT 52.069920 11.854100 4,510 269 186
2018-11-16 13:47:14 GMT 52.070179 11.869480 4,546 266 185
2018-11-16 13:46:56 GMT 52.071781 11.892680 4,000 265 184
2018-11-16 13:46:51 GMT 52.072182 11.899520 4,559 265 184
2018-11-16 13:46:37 GMT 52.073219 11.920270 1,850 268 182
2018-11-16 13:46:31 GMT 52.073429 11.927200 4,100 268 182
2018-11-16 13:46:20 GMT 52.073898 11.943650 4,625 268 182
2018-11-16 13:46:10 GMT 52.074100 11.957400 4,605 269 184
2018-11-16 13:45:59 GMT 52.074120 11.971270 4,618 271 184
2018-11-16 13:45:48 GMT 52.073631 11.987820 4,664 274 182
2018-11-16 13:45:36 GMT 52.072731 12.002720 4,100 272 186
2018-11-16 13:45:27 GMT 52.072220 12.016300 4,100 272 186
2018-11-16 13:45:15 GMT 52.071678 12.031270 4,100 272 186
2018-11-16 13:45:05 GMT 52.071129 12.044950 4,100 272 186
2018-11-16 13:44:53 GMT 52.070648 12.062900 4,100 272 186
2018-11-16 13:44:44 GMT 52.070381 12.074130 4,572 271 188
2018-11-16 13:44:30 GMT 52.070679 12.095270 4,100 268 188
2018-11-16 13:44:22 GMT 52.070950 12.105000 4,654 267 184
2018-11-16 13:44:11 GMT 52.071499 12.120280 4,628 265 186
2018-11-16 13:44:01 GMT 52.072430 12.135770 4,631 262 188
2018-11-16 13:43:51 GMT 52.073750 12.150820 4,753 264 180
2018-11-16 13:43:37 GMT 52.074829 12.168350 4,779 264 180
2018-11-16 13:43:29 GMT 52.075520 12.179030 4,753 265 180
2018-11-16 13:43:18 GMT 52.075920 12.194000 4,717 269 182
2018-11-16 13:43:08 GMT 52.076099 12.207630 4,749 268 180
2018-11-16 13:42:56 GMT 52.076328 12.223850 4,720 269 182
2018-11-16 13:42:46 GMT 52.076481 12.236070 4,717 269 180
2018-11-16 13:42:33 GMT 52.076981 12.254780 4,743 266 176
2018-11-16 13:42:22 GMT 52.077518 12.268150 4,720 267 178
2018-11-16 13:42:12 GMT 52.078018 12.282800 4,704 266 178
2018-11-16 13:42:03 GMT 52.078449 12.294820 4,690 267 178
2018-11-16 13:41:50 GMT 52.078949 12.312250 4,694 268 178
2018-11-16 13:41:40 GMT 52.079269 12.324130 4,704 268 174
2018-11-16 13:41:32 GMT 52.079651 12.336050 4,661 266 176
2018-11-16 13:41:21 GMT 52.080170 12.349280 4,641 266 176
2018-11-16 13:41:08 GMT 52.081131 12.366470 4,579 264 178
2018-11-16 13:40:58 GMT 52.081871 12.379870 4,572 265 178
We lost coverage of the aircraft here for a total of 258 minutes
2018-11-16 09:23:08 GMT 52.194050 13.124420 1,181 356 104 0
2018-11-16 09:23:00 GMT 52.190048 13.126570 1,200 325 120 0
2018-11-16 09:22:50 GMT 52.185822 13.132880 1,217 321 124 0
2018-11-16 09:22:39 GMT 52.181019 13.137800 1,223 336 120 0
2018-11-16 09:22:26 GMT 52.174351 13.142100 1,237 343 117 0
2018-11-16 09:22:10 GMT 52.165371 13.146720 1,214 336 122 0
2018-11-16 09:22:00 GMT 52.159481 13.150850 1,227 341 126 0
2018-11-16 09:21:37 GMT 52.146420 13.152530 1,233 3 127 0
2018-11-16 09:21:26 GMT 52.141048 13.148130 1,132 56 116 0
2018-11-16 09:21:12 GMT 52.139431 13.136370 1,115 83 114 0
2018-11-16 09:21:08 GMT 52.139179 13.132930 1,132 84 113 0
2018-11-16 09:20:41 GMT 52.137932 13.110620 1,145 83 118 0
2018-11-16 09:20:25 GMT 52.136250 13.094930 1,086 79 130 0
2018-11-16 09:20:16 GMT 52.135021 13.086150 1,118 76 134 0
2018-11-16 09:20:05 GMT 52.133072 13.075300 1,207 73 136 0
2018-11-16 09:19:49 GMT 52.130081 13.059830 1,345 78 132 0
2018-11-16 09:19:44 GMT 52.129429 13.055070 1,407 78 126 0
2018-11-16 09:19:34 GMT 52.128181 13.045820 1,479 79 123 0
2018-11-16 09:19:21 GMT 52.126751 13.033900 1,519 80 122 0
2018-11-16 09:19:13 GMT 52.125919 13.026550 1,502 84 124 0
2018-11-16 09:19:00 GMT 52.125729 13.014220 1,492 92 126 0
2018-11-16 09:18:51 GMT 52.125881 13.006430 1,450 92 132 0
2018-11-16 09:18:41 GMT 52.125950 12.996220 1,456 89 136 0
2018-11-16 09:18:32 GMT 52.125778 12.985730 1,509 88 138 0
2018-11-16 09:18:19 GMT 52.125172 12.971970 1,607 83 139 0
2018-11-16 09:18:10 GMT 52.124371 12.963570 1,686 81 139 0
2018-11-16 09:18:01 GMT 52.123322 12.953120 1,771 81 138 0
2018-11-16 09:17:51 GMT 52.122299 12.942920 1,886 79 134 0
2018-11-16 09:17:36 GMT 52.120579 12.927900 1,922 81 136 0
2018-11-16 09:17:30 GMT 52.120071 12.922780 1,932 81 138 0
2018-11-16 09:17:19 GMT 52.118900 12.911270 1,919 82 143 0
2018-11-16 09:17:09 GMT 52.117779 12.899180 1,991 83 146 0
2018-11-16 09:16:59 GMT 52.117168 12.889230 2,073 86 147 0
2018-11-16 09:16:45 GMT 52.116402 12.872450 1,600 90 153 0
2018-11-16 09:16:35 GMT 52.116051 12.862220 1,700 90 153 0
2018-11-16 09:16:27 GMT 52.115952 12.852980 2,352 90 153 0
2018-11-16 09:16:14 GMT 52.115929 12.836750 1,900 94 153 0
2018-11-16 09:16:07 GMT 52.116230 12.829780 2,604 94 153 0
2018-11-16 09:15:53 GMT 52.117031 12.813570 2,300 94 151 0
2018-11-16 09:15:47 GMT 52.117420 12.805520 2,900 94 151 0
2018-11-16 09:15:33 GMT 52.118118 12.790550 2,500 93 151 0
2018-11-16 09:15:26 GMT 52.118420 12.782500 3,191 93 151 0
2018-11-16 09:15:15 GMT 52.118851 12.768550 3,355 93 153 0
2018-11-16 09:15:06 GMT 52.119171 12.758100 3,493 94 153 0
2018-11-16 09:14:54 GMT 52.119549 12.744070 3,644 92 155 0
2018-11-16 09:14:43 GMT 52.119820 12.731080 3,775 91 157 0
2018-11-16 09:14:34 GMT 52.119820 12.721520 3,874 90 159 0
2018-11-16 09:14:25 GMT 52.119732 12.709600 4,061 89 157 0
2018-11-16 09:14:12 GMT 52.119572 12.695370 4,215 88 157 0
2018-11-16 09:13:58 GMT 52.118969 12.677480 3,800 86 155 0
2018-11-16 09:13:52 GMT 52.118679 12.671550 4,100 86 155 0
2018-11-16 09:13:43 GMT 52.118149 12.659850 4,684 86 155 0
2018-11-16 09:13:30 GMT 52.117100 12.644620 4,300 84 157 0
2018-11-16 09:13:23 GMT 52.116550 12.636380 4,933 84 157 0
2018-11-16 09:13:09 GMT 52.115318 12.618520 4,600 85 159 0
2018-11-16 09:12:58 GMT 52.114632 12.606630 4,700 85 159 0
2018-11-16 09:12:52 GMT 52.114170 12.599430 5,320 85 159 0
2018-11-16 09:12:41 GMT 52.113430 12.587400 5,481 87 159 0
2018-11-16 09:12:31 GMT 52.112720 12.574130 5,619 85 159 0
2018-11-16 09:12:17 GMT 52.111500 12.556980 5,200 81 163 0
2018-11-16 09:12:10 GMT 52.110668 12.548430 5,911 81 163 0
2018-11-16 09:12:00 GMT 52.109379 12.536350 6,091 80 161 0
2018-11-16 09:11:49 GMT 52.107670 12.523050 6,216 76 164 0
2018-11-16 09:11:38 GMT 52.105701 12.509770 6,370 77 165 0
2018-11-16 09:11:28 GMT 52.103649 12.497400 6,422 75 172 0
2018-11-16 09:11:18 GMT 52.101269 12.485120 6,652 71 168 0
2018-11-16 09:11:06 GMT 52.098320 12.471950 6,770 71 170 0
2018-11-16 09:10:56 GMT 52.095032 12.457420 6,977 70 167 0
2018-11-16 09:10:46 GMT 52.092651 12.446720 7,147 72 165 0
2018-11-16 09:10:35 GMT 52.089970 12.432300 7,301 74 165 0
2018-11-16 09:10:24 GMT 52.087952 12.420100 7,426 75 167 0
2018-11-16 09:10:12 GMT 52.085480 12.404230 7,100 75 167 0
2018-11-16 09:10:01 GMT 52.083729 12.393280 7,100 75 167 0
2018-11-16 09:09:54 GMT 52.082100 12.383550 7,790 75 167 0
2018-11-16 09:09:45 GMT 52.080479 12.372530 7,934 79 165 0
2018-11-16 09:09:33 GMT 52.078571 12.357980 8,049 81 165 0
2018-11-16 09:09:23 GMT 52.077702 12.345620 8,193 86 163 0
2018-11-16 09:09:14 GMT 52.077148 12.334670 8,302 87 161 0
2018-11-16 09:09:03 GMT 52.076729 12.321220 7,800 90 149 0
2018-11-16 09:08:49 GMT 52.076370 12.304300 7,900 90 149 0
2018-11-16 09:08:41 GMT 52.076229 12.295870 8,000 90 149 0
2018-11-16 09:08:29 GMT 52.076000 12.280320 8,100 90 149 0
2018-11-16 09:08:20 GMT 52.075722 12.269670 8,300 90 149 0
2018-11-16 09:08:11 GMT 52.075378 12.260330 8,400 90 149 0
2018-11-16 09:08:00 GMT 52.074902 12.234900 8,500 90 149 0
2018-11-16 09:07:49 GMT 52.074902 12.234900 8,500 90 149 0
2018-11-16 09:07:33 GMT 52.074680 12.215550 8,500 90 149 0
2018-11-16 09:07:30 GMT 52.074600 12.199680 8,500 86 149 0
2018-11-16 09:07:20 GMT 52.074020 12.182650 8,500 86 149 0
2018-11-16 09:07:04 GMT 52.074020 12.182650 8,500 86 149 0
2018-11-16 09:06:56 GMT 52.073502 12.173700 8,500 86 149 0
2018-11-16 09:06:49 GMT 52.073120 12.165820 9,115 86 149 0
2018-11-16 09:06:38 GMT 52.072552 12.152230 8,500 90 145 0
2018-11-16 09:06:20 GMT 52.071602 12.128580 8,500 90 145 0
2018-11-16 09:06:16 GMT 52.071602 12.128580 8,500 90 145 0
2018-11-16 09:06:07 GMT 52.071369 12.119430 8,600 90 145 0
2018-11-16 09:05:54 GMT 52.070801 12.104800 8,600 90 145 0
2018-11-16 09:05:42 GMT 52.070518 12.090350 8,600 90 145 0
2018-11-16 09:05:36 GMT 52.070400 12.083730 9,141 90 145 0
2018-11-16 09:05:24 GMT 52.070400 12.069320 9,132 91 145 0
2018-11-16 09:05:15 GMT 52.070549 12.060400 9,112 91 147 0
2018-11-16 09:05:05 GMT 52.070728 12.049170 8,500 91 147 0
2018-11-16 09:04:54 GMT 52.070831 12.037800 8,500 91 155 0
2018-11-16 09:04:43 GMT 52.070869 12.025170 9,109 91 147 0
2018-11-16 09:04:30 GMT 52.071049 12.009670 8,500 94 147 0
2018-11-16 09:04:24 GMT 52.071232 12.004120 8,500 94 147 0
2018-11-16 09:04:03 GMT 52.071571 11.980420 9,063 89 149 0
2018-11-16 09:03:51 GMT 52.071072 11.966920 8,500 86 149 0
2018-11-16 09:03:42 GMT 52.070572 11.956700 9,040 85 151 0
2018-11-16 09:03:32 GMT 52.069729 11.945250 8,500 86 150 0
2018-11-16 09:03:17 GMT 52.068821 11.927120 8,500 86 150 0
2018-11-16 09:03:10 GMT 52.068451 11.919180 8,500 86 150 0
2018-11-16 09:02:58 GMT 52.067951 11.906730 9,076 86 150 0
2018-11-16 09:02:48 GMT 52.067478 11.894150 8,500 89 149 0
2018-11-16 09:02:41 GMT 52.067371 11.887230 8,500 89 149 0
2018-11-16 09:02:30 GMT 52.067169 11.874700 8,500 89 149 0
2018-11-16 09:02:20 GMT 52.067051 11.863370 8,500 89 149 0
2018-11-16 09:02:10 GMT 52.066830 11.850920 8,500 88 149 0
2018-11-16 09:01:57 GMT 52.066471 11.837320 8,500 88 149 0
2018-11-16 09:01:48 GMT 52.066170 11.827100 9,102 87 149 0
2018-11-16 09:01:38 GMT 52.065899 11.815780 8,500 85 153 0
2018-11-16 09:01:23 GMT 52.065899 11.797320 8,500 85 153 0
2018-11-16 09:01:17 GMT 52.065922 11.788120 8,500 85 153 0
2018-11-16 09:01:07 GMT 52.066071 11.780100 8,500 85 153 0
2018-11-16 09:00:57 GMT 52.066151 11.767630 8,500 85 153 0
2018-11-16 09:00:37 GMT 52.065948 11.744970 8,500 85 153 0
2018-11-16 09:00:28 GMT 52.065701 11.733800 8,500 85 153 0
2018-11-16 09:00:16 GMT 52.065350 11.721480 8,500 85 153 0
2018-11-16 09:00:01 GMT 52.064548 11.705650 8,500 85 153 0
2018-11-16 08:59:48 GMT 52.063931 11.688600 8,500 85 153 0
2018-11-16 08:59:37 GMT 52.063381 11.677150 9,050 85 153 0
2018-11-16 08:59:22 GMT 52.062199 11.659920 8,500 77 157 0
2018-11-16 08:59:15 GMT 52.061481 11.652000 8,500 77 157 0
2018-11-16 08:59:05 GMT 52.060371 11.640580 8,500 77 157 0
2018-11-16 08:58:56 GMT 52.058880 11.630250 9,023 77 157 0
2018-11-16 08:58:44 GMT 52.056870 11.616520 8,500 89 153 0
2018-11-16 08:58:34 GMT 52.055080 11.605080 8,500 89 153 0
2018-11-16 08:56:38 GMT 52.039268 11.472020 8,500 89 153 0
2018-11-16 08:56:24 GMT 52.038818 11.455650 8,500 89 153 0
2018-11-16 08:56:20 GMT 52.038769 11.451000 8,600 89 153 0
2018-11-16 08:55:16 GMT 52.034050 11.376920 8,600 86 151 0
2018-11-16 08:55:04 GMT 52.032619 11.364500 8,600 86 151 0
2018-11-16 08:53:42 GMT 52.025120 11.271620 8,600 86 151 0
2018-11-16 08:53:37 GMT 52.024879 11.265930 9,109 86 151 0
2018-11-16 08:53:25 GMT 52.024250 11.250950 8,500 86 153 0
2018-11-16 08:53:16 GMT 52.023731 11.241620 8,500 83 157 0
2018-11-16 08:53:00 GMT 52.022369 11.222800 8,500 83 157 0
2018-11-16 08:52:56 GMT 52.022018 11.218070 8,500 83 157 0
2018-11-16 08:52:43 GMT 52.020100 11.189870 8,500 82 157 0
2018-11-16 08:52:32 GMT 52.020100 11.189870 8,500 82 157 0
2018-11-16 08:52:21 GMT 52.019199 11.176900 8,500 82 157 0
2018-11-16 08:52:14 GMT 52.018520 11.168700 8,500 82 157 0
2018-11-16 08:52:00 GMT 52.017078 11.152380 8,500 82 157 0
2018-11-16 08:51:49 GMT 52.015900 11.139680 8,500 82 157 0
2018-11-16 08:51:42 GMT 52.015079 11.130430 8,500 82 157 0
2018-11-16 08:51:31 GMT 52.013981 11.117680 8,500 82 157 0
2018-11-16 08:51:24 GMT 52.013279 11.109500 9,040 82 157 0
2018-11-16 08:51:03 GMT 52.011181 11.086270 8,500 82 153 0
2018-11-16 08:50:58 GMT 52.010620 11.080470 8,500 82 153 0
2018-11-16 08:50:50 GMT 52.009571 11.070020 8,500 82 153 0
2018-11-16 08:50:35 GMT 52.007870 11.053770 8,500 82 153 0
2018-11-16 08:50:30 GMT 52.007099 11.046870 8,500 82 153 0
2018-11-16 08:50:18 GMT 52.005730 11.034220 8,600 82 153 0
2018-11-16 08:50:09 GMT 52.004650 11.022780 8,600 82 153 0
2018-11-16 08:50:00 GMT 52.003769 11.012400 8,600 82 153 0
2018-11-16 08:49:50 GMT 52.003132 11.001930 8,500 82 153 0
2018-11-16 08:49:39 GMT 52.002281 10.989150 8,500 82 153 0
2018-11-16 08:49:29 GMT 52.001400 10.977580 8,500 82 153 0
2018-11-16 08:49:17 GMT 52.000229 10.963730 8,500 82 153 0
2018-11-16 08:49:11 GMT 51.999432 10.954600 9,089 82 153 0
2018-11-16 08:48:55 GMT 51.998081 10.938730 8,600 83 153 0
2018-11-16 08:48:50 GMT 51.997551 10.931920 8,600 83 153 0
2018-11-16 08:48:37 GMT 51.996319 10.918220 8,500 82 153 0
2018-11-16 08:48:29 GMT 51.994099 10.895550 8,500 85 155 0
2018-11-16 08:48:18 GMT 51.994099 10.895550 8,600 85 155 0
2018-11-16 08:48:08 GMT 51.992920 10.884300 8,600 85 155 0
2018-11-16 08:47:55 GMT 51.991322 10.870670 8,600 85 155 0
2018-11-16 08:47:45 GMT 51.990150 10.859130 8,500 85 155 0
2018-11-16 08:47:34 GMT 51.989021 10.845380 8,600 85 155 0
2018-11-16 08:47:21 GMT 51.987019 10.823600 8,600 85 155 0
2018-11-16 08:47:14 GMT 51.987019 10.823600 8,600 85 155 0
2018-11-16 08:47:06 GMT 51.986099 10.813370 8,600 85 155 0
2018-11-16 08:46:57 GMT 51.985329 10.804230 8,600 85 155 0
2018-11-16 08:46:47 GMT 51.984619 10.792670 8,600 85 155 0
2018-11-16 08:46:34 GMT 51.983929 10.777530 8,500 85 155 0
2018-11-16 08:46:24 GMT 51.983452 10.765980 8,600 85 155 0
2018-11-16 08:46:15 GMT 51.982868 10.755550 9,109 85 155 0
2018-11-16 08:46:03 GMT 51.981628 10.740420 8,500 82 155 0
2018-11-16 08:45:56 GMT 51.980820 10.732300 8,500 82 155 0
2018-11-16 08:45:44 GMT 51.979271 10.719680 8,600 82 155 0
2018-11-16 08:45:30 GMT 51.977451 10.703980 8,600 82 155 0
2018-11-16 08:45:25 GMT 51.976570 10.697170 8,600 82 155 0
2018-11-16 08:45:13 GMT 51.974651 10.683430 8,500 82 155 0
2018-11-16 08:45:01 GMT 51.972900 10.669830 8,500 82 155 0
2018-11-16 08:44:53 GMT 51.971951 10.661870 8,500 82 155 0
2018-11-16 08:44:43 GMT 51.970600 10.649150 9,046 82 155 0
2018-11-16 08:44:31 GMT 51.969372 10.636530 8,500 84 157 0
2018-11-16 08:44:24 GMT 51.968651 10.627180 9,000 84 157 0
2018-11-16 08:44:13 GMT 51.967819 10.614270 8,500 84 155 0
2018-11-16 08:43:58 GMT 51.966122 10.585150 8,500 85 153 0
2018-11-16 08:43:47 GMT 51.966122 10.585150 8,500 85 153 0
2018-11-16 08:43:36 GMT 51.965382 10.571220 8,500 85 153 0
2018-11-16 08:43:28 GMT 51.965080 10.563080 8,500 85 153 0
2018-11-16 08:43:14 GMT 51.964031 10.537550 8,500 85 153 0
2018-11-16 08:43:06 GMT 51.964031 10.537550 8,500 85 153 0
2018-11-16 08:42:58 GMT 51.963551 10.527130 8,500 85 153 0
2018-11-16 08:42:51 GMT 51.963169 10.520220 9,063 85 153 0
2018-11-16 08:42:39 GMT 51.962219 10.506520 8,500 81 151 0
2018-11-16 08:42:24 GMT 51.960602 10.488350 8,500 81 151 0
2018-11-16 08:42:21 GMT 51.960251 10.484950 8,500 81 151 0
2018-11-16 08:42:10 GMT 51.958832 10.472400 8,500 81 151 0
2018-11-16 08:41:59 GMT 51.957401 10.460770 8,400 81 151 0
2018-11-16 08:41:46 GMT 51.955719 10.444820 8,500 81 151 0
2018-11-16 08:41:39 GMT 51.954922 10.436920 8,500 81 151 0
2018-11-16 08:41:30 GMT 51.953880 10.426750 9,059 81 151 0
2018-11-16 08:41:19 GMT 51.952702 10.415450 8,500 86 152 0
2018-11-16 08:41:07 GMT 51.951080 10.401750 8,500 86 152 0
2018-11-16 08:40:56 GMT 51.949730 10.389130 8,500 86 152 0
2018-11-16 08:40:48 GMT 51.948769 10.379980 8,500 86 152 0
2018-11-16 08:40:37 GMT 51.947529 10.367380 8,500 86 152 0
2018-11-16 08:40:24 GMT 51.946152 10.352520 8,500 86 152 0
2018-11-16 08:40:12 GMT 51.944649 10.338880 8,500 86 152 0
2018-11-16 08:40:02 GMT 51.941780 10.318530 8,500 86 152 0
2018-11-16 08:39:54 GMT 51.941780 10.318530 8,500 86 152 0
2018-11-16 08:39:43 GMT 51.941280 10.304650 8,500 86 152 0
2018-11-16 08:39:34 GMT 51.941132 10.295380 8,500 86 152 0
2018-11-16 08:39:24 GMT 51.940971 10.283850 8,500 86 152 0
2018-11-16 08:39:08 GMT 51.940578 10.256020 8,500 86 152 0
2018-11-16 08:39:00 GMT 51.940578 10.256020 8,500 86 152 0
2018-11-16 08:38:51 GMT 51.940418 10.244450 8,500 86 152 0
2018-11-16 08:38:40 GMT 51.940182 10.231900 8,500 86 152 0
2018-11-16 08:38:33 GMT 51.939548 10.209130 8,500 86 152 0
2018-11-16 08:38:19 GMT 51.939548 10.209130 8,500 86 152 0
2018-11-16 08:38:13 GMT 51.939331 10.202250 8,500 86 152 0
2018-11-16 08:38:02 GMT 51.938881 10.188500 8,500 86 152 0
2018-11-16 08:37:47 GMT 51.938068 10.172520 8,500 86 152 0
2018-11-16 08:37:41 GMT 51.937698 10.165680 8,500 86 152 0
2018-11-16 08:37:32 GMT 51.937130 10.155370 8,500 86 152 0
2018-11-16 08:37:24 GMT 51.936432 10.143930 9,007 86 152 0
2018-11-16 08:37:11 GMT 51.935879 10.130200 8,500 89 149 0
2018-11-16 08:37:00 GMT 51.935619 10.118930 8,500 89 149 0
2018-11-16 08:36:49 GMT 51.935520 10.106420 8,500 89 149 0
2018-11-16 08:36:40 GMT 51.935379 10.096180 8,500 89 149 0
2018-11-16 08:36:31 GMT 51.935268 10.086030 8,500 86 153 0
2018-11-16 08:36:21 GMT 51.934929 10.074680 8,990 86 153 0
2018-11-16 08:36:08 GMT 51.934269 10.059670 8,400 86 155 0
2018-11-16 08:36:00 GMT 51.933800 10.050320 8,400 86 155 0
2018-11-16 08:35:49 GMT 51.933071 10.037400 8,400 87 153 0
2018-11-16 08:35:38 GMT 51.932320 10.024380 8,400 87 153 0
2018-11-16 08:35:30 GMT 51.931919 10.014980 8,400 87 153 0
2018-11-16 08:35:18 GMT 51.931469 10.001070 8,500 89 157 0
2018-11-16 08:35:10 GMT 51.931221 9.990470 8,954 89 157 0
2018-11-16 08:34:57 GMT 51.930931 9.976470 8,500 89 153 0
2018-11-16 08:34:47 GMT 51.930721 9.964620 8,400 89 153 0
2018-11-16 08:34:38 GMT 51.930550 9.954120 8,400 89 153 0
2018-11-16 08:34:28 GMT 51.930531 9.942450 9,013 90 155 0
2018-11-16 08:33:59 GMT 51.930649 9.908400 8,500 86 153 0
2018-11-16 08:33:55 GMT 51.930618 9.903670 8,500 86 153 0
2018-11-16 08:33:45 GMT 51.930370 9.891900 8,500 86 153 0
2018-11-16 08:33:34 GMT 51.930019 9.879120 8,500 86 153 0
2018-11-16 08:33:28 GMT 51.929619 9.869870 8,500 86 153 0
2018-11-16 08:33:10 GMT 51.928730 9.851270 8,500 86 153 0
2018-11-16 08:33:05 GMT 51.928471 9.845450 8,500 86 153 0
2018-11-16 08:32:53 GMT 51.927872 9.831270 8,500 86 153 0
2018-11-16 08:32:39 GMT 51.927181 9.814580 8,500 86 153 0
2018-11-16 08:32:30 GMT 51.926750 9.803850 8,500 86 153 0
2018-11-16 08:32:18 GMT 51.926270 9.789650 8,500 86 153 0
2018-11-16 08:32:03 GMT 51.925301 9.762650 8,500 86 153 0
2018-11-16 08:31:55 GMT 51.925129 9.759170 9,010 86 153 0
2018-11-16 08:31:36 GMT 51.924252 9.741000 8,600 86 151 0
2018-11-16 08:31:26 GMT 51.923779 9.729680 8,600 86 151 0
2018-11-16 08:31:22 GMT 51.923599 9.725170 8,600 86 151 0
2018-11-16 08:31:08 GMT 51.923000 9.709270 8,600 86 151 0
2018-11-16 08:31:03 GMT 51.922798 9.703580 8,600 86 151 0
2018-11-16 08:30:42 GMT 51.921749 9.679720 8,600 89 151 0
2018-11-16 08:30:31 GMT 51.921299 9.663700 8,600 89 151 0
2018-11-16 08:30:19 GMT 51.921131 9.653450 8,500 89 151 0
2018-11-16 08:29:11 GMT 51.921200 9.570020 8,948 89 151 0
2018-11-16 08:28:58 GMT 51.921028 9.559870 8,500 90 151 0
2018-11-16 08:28:49 GMT 51.920979 9.550780 8,500 90 151 0
2018-11-16 08:28:32 GMT 51.920898 9.531380 8,500 92 151 0
2018-11-16 08:28:20 GMT 51.920921 9.515180 8,500 92 151 0
2018-11-16 08:28:07 GMT 51.920979 9.500100 8,500 92 151 0
2018-11-16 08:27:56 GMT 51.921150 9.489650 8,500 92 151 0
2018-11-16 08:27:44 GMT 51.921169 9.475770 8,500 92 151 0
2018-11-16 08:27:36 GMT 51.920731 9.465370 8,500 92 151 0
2018-11-16 08:27:25 GMT 51.920151 9.453880 8,500 92 151 0
2018-11-16 08:27:15 GMT 51.919552 9.442380 8,500 92 151 0
2018-11-16 08:26:56 GMT 51.918850 9.420470 8,500 92 151 0
2018-11-16 08:26:47 GMT 51.918701 9.410000 8,500 92 151 0
2018-11-16 08:26:33 GMT 51.918468 9.393800 8,500 92 151 0
2018-11-16 08:26:22 GMT 51.917782 9.380970 8,500 92 151 0
2018-11-16 08:26:14 GMT 51.917599 9.362370 8,500 92 151 0
2018-11-16 08:26:06 GMT 51.917599 9.362370 8,500 92 151 0
2018-11-16 08:25:49 GMT 51.917950 9.341700 8,500 92 151 0
2018-11-16 08:25:46 GMT 51.918018 9.338230 8,500 92 151 0
2018-11-16 08:25:35 GMT 51.918400 9.325630 8,500 92 151 0
2018-11-16 08:25:19 GMT 51.918720 9.308670 8,500 92 151 0
2018-11-16 08:25:14 GMT 51.918850 9.301980 8,500 92 151 0
2018-11-16 08:25:05 GMT 51.919071 9.291880 8,500 92 151 0
2018-11-16 08:24:54 GMT 51.919319 9.279630 8,500 92 151 0
2018-11-16 08:24:45 GMT 51.919521 9.269470 8,889 92 151 0
2018-11-16 08:24:29 GMT 51.919922 9.250220 8,500 86 155 0
2018-11-16 08:24:24 GMT 51.919998 9.245630 8,400 86 155 0
2018-11-16 08:24:11 GMT 51.920101 9.231820 8,400 86 155 0
2018-11-16 08:23:57 GMT 51.920368 9.214200 8,400 86 155 0
2018-11-16 08:23:49 GMT 51.920528 9.206000 8,400 86 155 0
2018-11-16 08:23:42 GMT 51.920849 9.196720 8,500 86 155 0
2018-11-16 08:23:32 GMT 51.921299 9.186320 8,500 86 155 0
2018-11-16 08:23:21 GMT 51.922272 9.172500 8,500 86 155 0
2018-11-16 08:23:07 GMT 51.923569 9.157350 8,400 86 155 0
2018-11-16 08:22:58 GMT 51.924370 9.145680 8,400 86 155 0
2018-11-16 08:22:41 GMT 51.925480 9.127070 8,400 86 155 0
2018-11-16 08:22:31 GMT 51.926170 9.114400 8,500 86 155 0
2018-11-16 08:22:22 GMT 51.926781 9.104120 8,500 86 155 0
2018-11-16 08:22:10 GMT 51.927502 9.091530 8,500 86 155 0
2018-11-16 08:21:54 GMT 51.928429 9.073080 8,500 86 155 0
2018-11-16 08:21:46 GMT 51.929031 9.062700 8,500 86 155 0
2018-11-16 08:21:27 GMT 51.930149 9.040820 8,500 86 155 0
2018-11-16 08:21:17 GMT 51.930721 9.030420 8,500 86 155 0
2018-11-16 08:21:06 GMT 51.931400 9.017700 8,500 86 155 0
2018-11-16 08:20:56 GMT 51.932018 9.004920 8,500 86 155 0
2018-11-16 08:20:33 GMT 51.932770 8.979020 8,500 86 155 0
2018-11-16 08:20:24 GMT 51.932850 8.968430 8,500 86 155 0
2018-11-16 08:20:19 GMT 51.932671 8.947550 8,500 86 155 0
2018-11-16 08:20:07 GMT 51.932671 8.947550 8,600 86 155 0
2018-11-16 08:19:58 GMT 51.932220 8.938330 8,500 86 155 0
2018-11-16 08:19:41 GMT 51.931770 8.917130 8,500 90 153 0
2018-11-16 08:19:35 GMT 51.931629 8.902020 8,500 90 153 0
2018-11-16 08:19:28 GMT 51.931629 8.902020 9,017 90 153 0
2018-11-16 08:19:17 GMT 51.931499 8.890530 8,600 92 151 0
2018-11-16 08:19:07 GMT 51.931431 8.879180 8,600 92 151 0
2018-11-16 08:18:57 GMT 51.931431 8.867770 8,600 92 151 0
2018-11-16 08:18:46 GMT 51.931480 8.855180 8,600 92 151 0
2018-11-16 08:18:36 GMT 51.931568 8.842670 8,600 92 151 0
2018-11-16 08:18:26 GMT 51.931782 8.831230 8,977 92 151 0
2018-11-16 08:18:12 GMT 51.932121 8.816370 8,500 73 157 0
2018-11-16 08:18:04 GMT 51.932320 8.807200 8,500 73 157 0
2018-11-16 08:17:54 GMT 51.932480 8.795700 8,500 73 157 0
2018-11-16 08:17:43 GMT 51.932522 8.782930 8,500 73 157 0
2018-11-16 08:17:34 GMT 51.932499 8.770030 8,500 73 157 0
2018-11-16 08:17:21 GMT 51.932449 8.757180 8,500 73 157 0
2018-11-16 08:17:12 GMT 51.932320 8.746830 8,500 73 157 0
2018-11-16 08:17:02 GMT 51.931099 8.735670 8,500 73 157 0
2018-11-16 08:16:45 GMT 51.928120 8.717300 8,600 73 157 0
2018-11-16 08:16:34 GMT 51.925919 8.704020 8,500 73 157 0
2018-11-16 08:16:23 GMT 51.924122 8.692820 8,500 73 157 0
2018-11-16 08:16:07 GMT 51.921219 8.674570 8,400 73 157 0
2018-11-16 08:15:59 GMT 51.919521 8.664250 8,400 73 157 0
2018-11-16 08:15:50 GMT 51.917801 8.653950 8,400 73 157 0
2018-11-16 08:15:42 GMT 51.916420 8.646100 8,400 73 157 0
2018-11-16 08:15:29 GMT 51.913700 8.631720 8,500 73 157 0
2018-11-16 08:15:19 GMT 51.911701 8.620670 8,500 73 157 0
2018-11-16 08:15:13 GMT 51.910172 8.613020 8,500 73 157 0
2018-11-16 08:14:59 GMT 51.907299 8.598870 8,500 73 157 0
2018-11-16 08:14:51 GMT 51.905319 8.588870 8,500 73 157 0
2018-11-16 08:14:42 GMT 51.903580 8.579830 8,843 73 157 0
2018-11-16 08:14:32 GMT 51.901272 8.567450 8,833 75 157 0
2018-11-16 08:14:17 GMT 51.898499 8.551280 8,400 74 154 0
2018-11-16 08:14:10 GMT 51.897171 8.543150 8,400 74 154 0
2018-11-16 08:14:00 GMT 51.892300 8.509300 8,400 74 154 0
2018-11-16 08:13:41 GMT 51.892300 8.509300 8,400 74 154 0
2018-11-16 08:13:29 GMT 51.890099 8.495370 8,500 74 154 0
2018-11-16 08:13:19 GMT 51.888069 8.484000 8,500 74 154 0
2018-11-16 08:13:07 GMT 51.885632 8.470500 8,500 74 154 0
2018-11-16 08:12:58 GMT 51.883732 8.460500 8,500 74 154 0
2018-11-16 08:12:49 GMT 51.881882 8.450450 8,961 74 154 0
2018-11-16 08:12:37 GMT 51.879581 8.436880 8,500 74 157 0
2018-11-16 08:12:27 GMT 51.877480 8.424370 8,500 74 157 0
2018-11-16 08:12:18 GMT 51.875530 8.413020 8,938 74 157 0
2018-11-16 08:12:08 GMT 51.873650 8.402880 8,931 74 156 0
2018-11-16 08:11:53 GMT 51.870579 8.387100 8,500 71 153 0
2018-11-16 08:11:47 GMT 51.869251 8.380320 8,500 71 153 0
2018-11-16 08:11:37 GMT 51.866779 8.368150 8,500 71 153 0
2018-11-16 08:11:27 GMT 51.864319 8.357280 8,600 70 155 0
2018-11-16 08:11:14 GMT 51.861000 8.344370 8,500 70 155 0
2018-11-16 08:11:06 GMT 51.858231 8.334730 8,500 70 155 0
2018-11-16 08:10:51 GMT 51.852921 8.316050 8,500 70 155 0
2018-11-16 08:10:43 GMT 51.851330 8.310570 8,500 70 155 0
2018-11-16 08:10:35 GMT 51.848900 8.301780 8,500 70 155 0
2018-11-16 08:10:25 GMT 51.845451 8.289850 8,500 70 155 0
2018-11-16 08:10:17 GMT 51.842972 8.281280 8,500 70 155 0
2018-11-16 08:10:02 GMT 51.838829 8.265970 8,500 70 155 0
2018-11-16 08:09:55 GMT 51.836929 8.258280 8,500 70 155 0
2018-11-16 08:09:31 GMT 51.831081 8.230930 8,500 70 155 0
2018-11-16 08:09:21 GMT 51.825779 8.207680 8,500 70 155 0
2018-11-16 08:09:10 GMT 51.825779 8.207680 8,600 70 155 0
2018-11-16 08:09:04 GMT 51.824299 8.201120 9,023 70 155 0
2018-11-16 08:08:52 GMT 51.821079 8.186970 9,023 70 153 0
2018-11-16 08:08:39 GMT 51.818130 8.172650 8,600 72 155 0
2018-11-16 08:08:33 GMT 51.816971 8.167120 8,958 72 155 0
2018-11-16 08:08:21 GMT 51.813801 8.152650 8,500 69 157 0
2018-11-16 08:08:12 GMT 51.811470 8.142680 8,938 69 157 0
2018-11-16 08:08:01 GMT 51.808331 8.130650 8,500 63 160 0
2018-11-16 08:07:51 GMT 51.805351 8.121130 8,500 63 160 0
2018-11-16 08:07:43 GMT 51.802818 8.112620 8,500 63 160 0
2018-11-16 08:07:32 GMT 51.799301 8.100830 8,869 63 160 0
2018-11-16 08:07:21 GMT 51.795620 8.088770 8,400 62 166 0
2018-11-16 08:06:56 GMT 51.787319 8.061350 8,400 62 166 0
2018-11-16 08:06:49 GMT 51.784569 8.051250 8,400 62 166 0
2018-11-16 08:06:40 GMT 51.780621 8.037920 8,400 62 166 0
2018-11-16 08:06:28 GMT 51.778229 8.030230 8,500 62 166 0
2018-11-16 08:06:21 GMT 51.775372 8.021530 8,500 62 166 0
2018-11-16 08:06:11 GMT 51.771370 8.009480 8,876 62 166 0
2018-11-16 08:06:04 GMT 51.770416 8.003616 8,500 54 169 0
2018-11-16 08:05:57 GMT 51.766182 7.993393 8,500 54 169 0
2018-11-16 08:05:49 GMT 51.763729 7.987800 8,500 54 166 -64
2018-11-16 08:05:41 GMT 51.758999 7.976380 8,925 54 166 -64
2018-11-16 08:05:32 GMT 51.755985 7.971115 8,500 51 165 -64
2018-11-16 08:05:29 GMT 51.754429 7.966330 8,500 51 165 -64
2018-11-16 08:05:21 GMT 51.749271 7.955580 8,968 51 165 -64
2018-11-16 08:05:15 GMT 51.747280 7.953873 8,500 58 174 -64
2018-11-16 08:05:11 GMT 51.744572 7.945720 8,948 53 167 -64
2018-11-16 08:05:03 GMT 51.741787 7.942429 8,525 60 178 -64
2018-11-16 08:04:59 GMT 51.740879 7.937600 8,500 60 181 -320
2018-11-16 08:04:49 GMT 51.735680 7.925270 8,600 60 181 -320
2018-11-16 08:04:40 GMT 51.731251 7.913500 8,948 61 167 -448
2018-11-16 08:04:32 GMT 51.729218 7.908936 8,525 61 181 -448
2018-11-16 08:04:27 GMT 51.726849 7.900180 8,500 64 165 -320
2018-11-16 08:04:23 GMT 51.724190 7.895432 8,600 64 165 -320
2018-11-16 08:04:18 GMT 51.720348 7.879200 8,600 75 147 -64
2018-11-16 08:04:08 GMT 51.720348 7.879200 8,600 75 147 -64
2018-11-16 08:03:58 GMT 51.718201 7.871450 8,600 75 147 -64
2018-11-16 08:03:48 GMT 51.715649 7.860280 8,700 75 146 -64
2018-11-16 08:03:38 GMT 51.713570 7.849120 8,700 74 142 64
2018-11-16 08:03:27 GMT 51.711880 7.836550 8,700 74 142 64
2018-11-16 08:03:20 GMT 51.711205 7.826004 8,700 74 142 64
2018-11-16 08:03:17 GMT 51.710072 7.823200 8,800 74 142 64
2018-11-16 08:03:07 GMT 51.708481 7.810920 8,700 74 141 192
2018-11-16 08:03:01 GMT 51.707619 7.805634 8,775 74 141 192
2018-11-16 08:02:57 GMT 51.706749 7.801270 8,700 81 121 192
2018-11-16 08:02:47 GMT 51.704769 7.789700 8,800 81 121 192
2018-11-16 08:02:36 GMT 51.703201 7.779950 8,700 81 121 192
2018-11-16 08:02:29 GMT 51.701984 7.773590 8,700 81 121 192
2018-11-16 08:02:26 GMT 51.700851 7.765500 8,700 81 121 192
2018-11-16 08:02:20 GMT 51.700401 7.764816 8,700 81 121 192
2018-11-16 08:02:16 GMT 51.699322 7.755420 8,700 81 121 192
2018-11-16 08:02:06 GMT 51.698669 7.750250 8,700 81 121 192
2018-11-16 08:01:59 GMT 51.696911 7.739410 8,600 81 121 192
2018-11-16 08:01:51 GMT 51.696121 7.733307 8,650 81 121 192
2018-11-16 08:01:43 GMT 51.695190 7.725677 8,600 71 121 320
2018-11-16 08:01:34 GMT 51.694584 7.718277 8,600 71 121 320
2018-11-16 08:01:26 GMT 51.693977 7.708969 8,600 71 121 320
2018-11-16 08:01:19 GMT 51.693516 7.702713 8,600 71 121 320
2018-11-16 08:01:08 GMT 51.693001 7.693100 8,500 71 121 320
2018-11-16 08:00:50 GMT 51.692116 7.679062 8,400 71 121 320
2018-11-16 08:00:43 GMT 51.692116 7.674026 8,400 71 121 320
2018-11-16 08:00:35 GMT 51.691792 7.665787 8,300 71 121 320
2018-11-16 08:00:24 GMT 51.691185 7.657776 8,300 71 121 320
2018-11-16 08:00:11 GMT 51.689789 7.644196 8,200 84 113 384
2018-11-16 08:00:06 GMT 51.688904 7.639999 8,100 84 113 384
2018-11-16 07:59:57 GMT 51.686020 7.628632 8,000 84 113 384
2018-11-16 07:59:45 GMT 51.684807 7.624130 8,000 84 113 384
2018-11-16 07:59:35 GMT 51.681595 7.614594 7,900 84 113 384
2018-11-16 07:59:21 GMT 51.680714 7.602081 7,800 87 114 448
2018-11-16 07:59:13 GMT 51.680618 7.595291 7,700 74 118 768
2018-11-16 07:59:01 GMT 51.680477 7.585068 7,600 74 118 768
2018-11-16 07:58:48 GMT 51.681084 7.574615 7,500 74 118 768
2018-11-16 07:58:41 GMT 51.681084 7.567978 7,400 74 118 768
2018-11-16 07:58:25 GMT 51.679920 7.554932 7,300 74 118 768
2018-11-16 07:58:20 GMT 51.679920 7.550735 7,200 74 118 768
2018-11-16 07:58:00 GMT 51.677685 7.536316 7,100 74 118 768
2018-11-16 07:57:55 GMT 51.677082 7.531509 7,000 74 118 768
2018-11-16 07:57:47 GMT 51.676197 7.525787 6,900 74 118 768
2018-11-16 07:57:35 GMT 51.674801 7.516479 6,900 74 118 768
2018-11-16 07:57:17 GMT 51.673077 7.502975 6,600 74 118 768
2018-11-16 07:57:11 GMT 51.671822 7.496033 6,700 74 118 768
2018-11-16 07:57:02 GMT 51.670517 7.489395 6,500 74 118 768
2018-11-16 07:56:49 GMT 51.668282 7.480011 6,400 87 116 576
2018-11-16 07:56:40 GMT 51.666607 7.472610 6,300 87 116 576
2018-11-16 07:56:25 GMT 51.663486 7.460403 6,200 87 116 576
2018-11-16 07:56:17 GMT 51.663116 7.451096 6,000 89 118 704
2018-11-16 07:56:08 GMT 51.662788 7.444382 6,000 89 118 704
2018-11-16 07:55:57 GMT 51.662788 7.435379 5,900 88 121 832
2018-11-16 07:55:44 GMT 51.663116 7.425308 5,800 85 125 576
2018-11-16 07:55:37 GMT 51.663021 7.419128 5,600 85 125 576
2018-11-16 07:55:20 GMT 51.663582 7.404175 5,400 77 130 512
2018-11-16 07:55:15 GMT 51.663021 7.397995 5,300 77 130 512
2018-11-16 07:55:02 GMT 51.661903 7.387695 5,200 76 148 704
2018-11-16 07:54:50 GMT 51.659485 7.377701 5,100 76 148 704
2018-11-16 07:54:42 GMT 51.658413 7.370834 5,000 76 148 704
2018-11-16 07:54:29 GMT 51.656086 7.357483 4,525 83 145 128
2018-11-16 07:54:22 GMT 51.654316 7.349625 4,600 83 145 128
2018-11-16 07:54:10 GMT 51.652222 7.337036 4,500 83 145 128
2018-11-16 07:53:55 GMT 51.650917 7.321701 4,500 84 144 128
2018-11-16 07:53:46 GMT 51.650314 7.310791 4,500 84 143 0
2018-11-16 07:53:41 GMT 51.650082 7.304688 4,500 82 137 -64
2018-11-16 07:53:26 GMT 51.649010 7.288589 4,400 82 137 -64
2018-11-16 07:53:21 GMT 51.648312 7.282867 4,475 84 134 0
2018-11-16 07:53:11 GMT 51.647518 7.272491 4,400 83 131 192
2018-11-16 07:53:00 GMT 51.646824 7.261124 4,500 85 126 64
2018-11-16 07:52:46 GMT 51.645985 7.246780 4,400 85 126 64
2018-11-16 07:52:36 GMT 51.644402 7.225800 4,400 85 126 64
2018-11-16 07:52:23 GMT 51.644402 7.225800 4,400 85 126 64
2018-11-16 07:52:18 GMT 51.643982 7.221222 4,400 85 126 64
2018-11-16 07:52:02 GMT 51.641979 7.204819 4,300 85 114 384
2018-11-16 07:51:55 GMT 51.641609 7.198410 4,300 85 114 384
2018-11-16 07:51:44 GMT 51.641701 7.189407 4,300 85 114 384
2018-11-16 07:51:37 GMT 51.642120 7.182083 4,200 85 114 384
2018-11-16 07:51:21 GMT 51.642818 7.166977 4,100 85 114 384
2018-11-16 07:51:14 GMT 51.642818 7.161789 4,000 85 114 384
2018-11-16 07:51:00 GMT 51.643097 7.151031 4,000 85 114 384
2018-11-16 07:50:50 GMT 51.642677 7.141800 4,100 86 123 512
2018-11-16 07:50:44 GMT 51.642490 7.138138 4,000 86 123 512
2018-11-16 07:50:31 GMT 51.641609 7.126389 4,000 86 123 512
2018-11-16 07:50:25 GMT 51.642212 7.120209 3,900 80 120 512
2018-11-16 07:50:10 GMT 51.641422 7.108002 3,800 80 120 512
2018-11-16 07:49:56 GMT 51.640209 7.094193 3,700 80 120 512

Making use of Plane Finder data

You are free to use the raw flight data, aircraft information and images provided in this report for your own purposes provided the data is correctly attributed to Plane Finder. We ask that you please credit Plane Finder and link to planefinder.net in close proximity to the content.

Optionally one of the following logos (no smaller then 150x24px) can be used and must link to planefinder.net

Embedding the Plane Finder map

You are welcome to embed the Plane Finder playback map on your website to offer visitors a more interactive experience. We suggest using the following HTML code:

<iframe src="//planefinder.net/data/report/DENSR-D-ENSR-7700-squawk-2018-11-16/map" width="800" height="600" seamless="seamless"></iframe>

Where our data comes from

Plane Finder has a global network of data feeds and antenna radars that receive data broadcast directly from aircraft. The primary technologies used are ADS-B and MLAT. We also show feeds from the FAA and a FLARM glider feed.

Click here to find out more about the Plane Finder network.

How we collect our data